Okaloosa, Louisiana
Current Conditions -  °F | °C
As of 10:55 AM on Friday 28 Nov 2014 (Local Time) from KRSN Reporting Station
Clear Clear  
Wind Chill: 52°   Ceiling: Unl
Heat Index: 52°   Visibility: 10mi
Dew Point: 35°   Wind: 9mph
Humidity: 52%   Direction: 170°S
Pressure: 30.39"   Gusts: NA
Location:  32.3575°N, 92.3661°W
Report Text: KRSN 281655Z AUTO 17008KT 10SM CLR 11/02 A3039 RMK AO2 T01130018
Loading
Personal Weather Stations






























Interactive Weather Map New forecast layout! Learn more

10-Day Weather Forecast

Advertisements
Track Severe Weather on mobile